Time,TemperatureF,DewpointF,PressureIn,WindDirection,WindDirectionDegrees,WindSpeedMPH,WindSpeedGustMPH,Humidity,HourlyPrecipIn,Conditions,Clouds,dailyrainin,SoftwareType,DateUTC
2013-04-02 00:00:00,63.9,58.6,29.95,SW,225,0.0,0.0,83,0.00,FEW,,0.00,WeatherDisplay:10.37,2013-04-02 04:00:00,
2013-04-02 00:05:00,63.7,58.4,29.95,SW,225,0.0,0.0,83,0.00,FEW,,0.00,WeatherDisplay:10.37,2013-04-02 04:05:00,
2013-04-02 00:10:00,63.7,58.8,29.95,SW,225,0.0,0.0,84,0.00,FEW,,0.00,WeatherDisplay:10.37,2013-04-02 04:10:00,
2013-04-02 00:15:00,63.5,58.6,29.95,SW,225,0.0,0.0,84,0.00,FEW,,0.00,WeatherDisplay:10.37,2013-04-02 04:15:00,
2013-04-02 00:20:00,63.5,58.6,29.95,SW,225,0.0,0.0,84,0.00,FEW,,0.00,WeatherDisplay:10.37,2013-04-02 04:20:00,
2013-04-02 00:25:00,63.3,58.7,29.95,SW,225,0.0,0.0,85,0.00,FEW,,0.00,WeatherDisplay:10.37,2013-04-02 04:25:00,
2013-04-02 00:30:00,63.1,58.6,29.95,SW,225,0.0,0.0,85,0.00,FEW,,0.00,WeatherDisplay:10.37,2013-04-02 04:30:00,
2013-04-02 00:35:00,63.1,58.9,29.95,SW,225,0.0,0.0,86,0.00,FEW,,0.00,WeatherDisplay:10.37,2013-04-02 04:35:00,
2013-04-02 00:40:00,63.0,58.7,29.95,SW,225,0.0,0.0,86,0.00,FEW,,0.00,WeatherDisplay:10.37,2013-04-02 04:40:00,
2013-04-02 00:45:00,62.8,58.5,29.95,SW,225,0.0,0.0,86,0.00,FEW,,0.00,WeatherDisplay:10.37,2013-04-02 04:45:00,
2013-04-02 00:50:00,62.8,58.5,29.95,SW,225,0.0,0.0,86,0.00,FEW,,0.00,WeatherDisplay:10.37,2013-04-02 04:50:00,
2013-04-02 00:55:00,62.6,58.4,29.95,SW,225,0.0,0.0,86,0.00,FEW,,0.00,WeatherDisplay:10.37,2013-04-02 04:55:00,
2013-04-02 01:00:00,62.4,58.2,29.95,SW,225,0.0,0.0,86,0.00,FEW,,0.00,WeatherDisplay:10.37,2013-04-02 05:00:00,
2013-04-02 01:02:00,62.4,58.2,29.95,SW,225,0.0,0.0,86,0.00,FEW,,0.00,WeatherDisplay:10.37,2013-04-02 05:02:00,
2013-04-02 01:05:00,62.4,58.2,29.95,SW,225,0.0,0.0,86,0.00,FEW,,0.00,WeatherDisplay:10.37,2013-04-02 05:05:00,
2013-04-02 01:10:00,62.4,58.2,29.95,SW,225,0.0,0.0,86,0.00,FEW,,0.00,WeatherDisplay:10.37,2013-04-02 05:10:00,
2013-04-02 01:15:00,62.2,58.3,29.95,SW,225,0.0,0.0,87,0.00,FEW,,0.00,WeatherDisplay:10.37,2013-04-02 05:15:00,
2013-04-02 01:20:00,62.2,58.3,29.95,SW,225,0.0,0.0,87,0.00,FEW,,0.00,WeatherDisplay:10.37,2013-04-02 05:20:00,
2013-04-02 01:25:00,62.1,58.1,29.95,SW,225,0.0,0.0,87,0.00,FEW,,0.00,WeatherDisplay:10.37,2013-04-02 05:25:00,
2013-04-02 01:30:00,62.2,58.3,29.95,SW,225,0.0,0.0,87,0.00,FEW,,0.00,WeatherDisplay:10.37,2013-04-02 05:30:00,
2013-04-02 01:35:00,62.4,58.5,29.95,SW,225,0.0,0.0,87,0.00,FEW,,0.00,WeatherDisplay:10.37,2013-04-02 05:35:00,
2013-04-02 01:40:00,62.2,58.3,29.95,SW,225,0.0,0.0,87,0.00,FEW,,0.00,WeatherDisplay:10.37,2013-04-02 05:40:00,
2013-04-02 01:45:00,62.2,58.3,29.96,SW,225,0.0,0.0,87,0.00,FEW,,0.00,WeatherDisplay:10.37,2013-04-02 05:45:00,
2013-04-02 01:50:00,62.2,58.3,29.96,SW,225,0.0,0.0,87,0.00,FEW,,0.00,WeatherDisplay:10.37,2013-04-02 05:50:00,
2013-04-02 01:55:00,62.1,58.1,29.95,SW,225,0.0,0.0,87,0.00,FEW,,0.00,WeatherDisplay:10.37,2013-04-02 05:55:00,
2013-04-02 02:00:00,62.2,58.3,29.95,SW,225,0.0,0.0,87,0.00,FEW,,0.00,WeatherDisplay:10.37,2013-04-02 06:00:00,
2013-04-02 02:05:00,62.1,58.1,29.95,SW,225,0.0,0.0,87,0.00,FEW,,0.00,WeatherDisplay:10.37,2013-04-02 06:05:00,
2013-04-02 02:10:00,61.9,58.0,29.96,SW,225,0.0,0.0,87,0.00,FEW,,0.00,WeatherDisplay:10.37,2013-04-02 06:10:00,
2013-04-02 02:15:00,61.9,58.0,29.96,SW,225,0.0,0.0,87,0.00,FEW,,0.00,WeatherDisplay:10.37,2013-04-02 06:15:00,
2013-04-02 02:20:00,61.9,58.0,29.96,SW,225,0.0,0.0,87,0.00,FEW,,0.00,WeatherDisplay:10.37,2013-04-02 06:20:00,
2013-04-02 02:25:00,61.9,58.0,29.96,SW,225,0.0,0.0,87,0.00,CLR,,0.00,WeatherDisplay:10.37,2013-04-02 06:25:00,
2013-04-02 02:30:00,61.7,57.8,29.96,SW,225,0.0,0.0,87,0.00,CLR,,0.00,WeatherDisplay:10.37,2013-04-02 06:30:00,
2013-04-02 02:35:00,61.3,57.8,29.96,SW,225,0.0,0.0,88,0.00,CLR,,0.00,WeatherDisplay:10.37,2013-04-02 06:35:00,
2013-04-02 02:39:00,61.2,57.6,29.96,SW,225,0.0,0.0,88,0.00,CLR,,0.00,WeatherDisplay:10.37,2013-04-02 06:39:00,
2013-04-02 02:40:00,61.2,57.6,29.96,SW,225,0.0,0.0,88,0.00,CLR,,0.00,WeatherDisplay:10.37,2013-04-02 06:40:00,
2013-04-02 02:45:00,61.2,57.6,29.96,SW,225,0.0,0.0,88,0.00,CLR,,0.00,WeatherDisplay:10.37,2013-04-02 06:45:00,
2013-04-02 02:51:00,61.2,57.6,29.95,SW,225,0.0,0.0,88,0.00,CLR,,0.00,WeatherDisplay:10.37,2013-04-02 06:51:00,
2013-04-02 02:56:00,61.2,57.6,29.95,SW,225,0.0,0.0,88,0.00,CLR,,0.00,WeatherDisplay:10.37,2013-04-02 06:56:00,
2013-04-02 03:01:00,60.6,57.0,29.96,SW,225,0.0,0.0,88,0.00,FEW,,0.00,WeatherDisplay:10.37,2013-04-02 07:01:00,
2013-04-02 03:06:00,60.6,57.4,29.96,SW,225,0.0,0.0,89,0.00,FEW,,0.00,WeatherDisplay:10.37,2013-04-02 07:06:00,
2013-04-02 03:11:00,60.6,57.0,29.95,SW,225,0.0,0.0,88,0.00,FEW,,0.00,WeatherDisplay:10.37,2013-04-02 07:11:00,
2013-04-02 03:16:00,60.6,57.4,29.95,SW,225,0.0,0.0,89,0.00,FEW,,0.00,WeatherDisplay:10.37,2013-04-02 07:16:00,
2013-04-02 03:21:00,60.4,57.2,29.96,SW,225,0.0,0.0,89,0.00,FEW,,0.00,WeatherDisplay:10.37,2013-04-02 07:21:00,
2013-04-02 03:27:00,60.4,57.2,29.96,SW,225,0.0,0.0,89,0.00,FEW,,0.00,WeatherDisplay:10.37,2013-04-02 07:27:00,
2013-04-02 03:32:00,60.1,56.8,29.96,SW,225,0.0,0.0,89,0.00,FEW,,0.00,WeatherDisplay:10.37,2013-04-02 07:32:00,
2013-04-02 03:37:00,59.9,57.0,29.96,SW,225,0.0,0.0,90,0.00,FEW,,0.00,WeatherDisplay:10.37,2013-04-02 07:37:00,
2013-04-02 03:42:00,59.9,57.0,29.96,SW,225,0.0,0.0,90,0.00,FEW,,0.00,WeatherDisplay:10.37,2013-04-02 07:42:00,
2013-04-02 03:47:00,59.7,56.8,29.96,SW,225,0.0,0.0,90,0.00,FEW,,0.00,WeatherDisplay:10.37,2013-04-02 07:47:00,
2013-04-02 03:52:00,59.5,56.6,29.96,SW,225,0.0,0.0,90,0.00,FEW,,0.00,WeatherDisplay:10.37,2013-04-02 07:52:00,
2013-04-02 03:57:00,59.4,56.4,29.96,SW,225,0.0,0.0,90,0.00,FEW,,0.00,WeatherDisplay:10.37,2013-04-02 07:57:00,
2013-04-02 04:02:00,59.4,56.7,29.96,SW,225,0.0,0.0,91,0.00,CLR,,0.00,WeatherDisplay:10.37,2013-04-02 08:02:00,
2013-04-02 04:07:00,59.2,56.6,29.96,SW,225,0.0,0.0,91,0.00,CLR,,0.00,WeatherDisplay:10.37,2013-04-02 08:07:00,
2013-04-02 04:12:00,59.2,56.6,29.96,SW,225,0.0,0.0,91,0.00,CLR,,0.00,WeatherDisplay:10.37,2013-04-02 08:12:00,
2013-04-02 04:17:00,58.8,56.5,29.96,SW,225,0.0,0.0,92,0.00,CLR,,0.00,WeatherDisplay:10.37,2013-04-02 08:17:00,
2013-04-02 04:22:00,58.6,56.3,29.96,SW,225,0.0,0.0,92,0.00,CLR,,0.00,WeatherDisplay:10.37,2013-04-02 08:22:00,
2013-04-02 04:27:00,58.3,56.0,29.96,SW,225,0.0,0.0,92,0.00,CLR,,0.00,WeatherDisplay:10.37,2013-04-02 08:27:00,
2013-04-02 04:32:00,58.1,55.8,29.96,SW,225,0.0,0.0,92,0.00,CLR,,0.00,WeatherDisplay:10.37,2013-04-02 08:32:00,
2013-04-02 04:37:00,58.1,56.1,29.96,SW,225,0.0,0.0,93,0.00,CLR,,0.00,WeatherDisplay:10.37,2013-04-02 08:37:00,
2013-04-02 04:42:00,57.9,55.9,29.97,SW,225,0.0,0.0,93,0.00,CLR,,0.00,WeatherDisplay:10.37,2013-04-02 08:42:00,
2013-04-02 04:47:00,57.9,55.9,29.97,SW,225,0.0,0.0,93,0.00,CLR,,0.00,WeatherDisplay:10.37,2013-04-02 08:47:00,
2013-04-02 04:52:00,57.7,55.7,29.97,SW,225,0.0,0.0,93,0.00,CLR,,0.00,WeatherDisplay:10.37,2013-04-02 08:52:00,
2013-04-02 04:57:00,57.6,55.6,29.97,SW,225,0.0,0.0,93,0.00,CLR,,0.00,WeatherDisplay:10.37,2013-04-02 08:57:00,
2013-04-02 05:02:00,57.4,55.4,29.97,SW,225,0.0,0.0,93,0.00,CLR,,0.00,WeatherDisplay:10.37,2013-04-02 09:02:00,
2013-04-02 05:07:00,57.4,55.7,29.97,SW,225,0.0,0.0,94,0.00,CLR,,0.00,WeatherDisplay:10.37,2013-04-02 09:07:00,
2013-04-02 05:13:00,57.0,55.3,29.97,SW,225,0.0,0.0,94,0.00,CLR,,0.00,WeatherDisplay:10.37,2013-04-02 09:13:00,
2013-04-02 05:18:00,57.0,55.0,29.98,SW,225,0.0,0.0,93,0.00,CLR,,0.00,WeatherDisplay:10.37,2013-04-02 09:18:00,
2013-04-02 05:23:00,56.8,55.1,29.97,SW,225,0.0,0.0,94,0.00,CLR,,0.00,WeatherDisplay:10.37,2013-04-02 09:23:00,
2013-04-02 05:28:00,56.8,55.1,29.97,SW,225,0.0,0.0,94,0.00,CLR,,0.00,WeatherDisplay:10.37,2013-04-02 09:28:00,
2013-04-02 05:33:00,56.8,55.1,29.98,SW,225,0.0,0.0,94,0.00,CLR,,0.00,WeatherDisplay:10.37,2013-04-02 09:33:00,
2013-04-02 05:38:00,56.7,55.0,29.97,SW,225,0.0,0.0,94,0.00,CLR,,0.00,WeatherDisplay:10.37,2013-04-02 09:38:00,
2013-04-02 05:43:00,56.5,54.8,29.97,SW,225,0.0,0.0,94,0.00,CLR,,0.00,WeatherDisplay:10.37,2013-04-02 09:43:00,
2013-04-02 05:48:00,56.5,54.8,29.98,SW,225,0.0,0.0,94,0.00,CLR,,0.00,WeatherDisplay:10.37,2013-04-02 09:48:00,
2013-04-02 05:53:00,56.3,54.9,29.98,SW,225,0.0,0.0,95,0.00,CLR,,0.00,WeatherDisplay:10.37,2013-04-02 09:53:00,
2013-04-02 05:58:00,56.1,54.4,29.98,SW,225,0.0,0.0,94,0.00,CLR,,0.00,WeatherDisplay:10.37,2013-04-02 09:58:00,
2013-04-02 06:03:00,56.1,54.7,29.98,SW,225,0.0,0.0,95,0.00,CLR,,0.00,WeatherDisplay:10.37,2013-04-02 10:03:00,
2013-04-02 06:08:00,55.9,54.5,29.99,SW,225,0.0,0.0,95,0.00,CLR,,0.00,WeatherDisplay:10.37,2013-04-02 10:08:00,
2013-04-02 06:13:00,55.8,54.3,29.99,SW,225,0.0,0.0,95,0.00,CLR,,0.00,WeatherDisplay:10.37,2013-04-02 10:13:00,
2013-04-02 06:18:00,55.8,54.3,29.99,SW,225,0.0,0.0,95,0.00,CLR,,0.00,WeatherDisplay:10.37,2013-04-02 10:18:00,
2013-04-02 06:23:00,55.6,54.2,29.99,SW,225,0.0,0.0,95,0.00,CLR,,0.00,WeatherDisplay:10.37,2013-04-02 10:23:00,
2013-04-02 06:28:00,55.2,53.8,29.99,SW,225,0.0,0.0,95,0.00,CLR,,0.00,WeatherDisplay:10.37,2013-04-02 10:28:00,
2013-04-02 06:33:00,55.2,53.8,30.00,SW,225,0.0,0.0,95,0.00,CLR,,0.00,WeatherDisplay:10.37,2013-04-02 10:33:00,
2013-04-02 06:38:00,55.0,53.6,30.00,SW,225,0.0,0.0,95,0.00,CLR,,0.00,WeatherDisplay:10.37,2013-04-02 10:38:00,
2013-04-02 06:43:00,55.0,53.6,30.00,SW,225,0.0,0.0,95,0.00,CLR,,0.00,WeatherDisplay:10.37,2013-04-02 10:43:00,
2013-04-02 06:48:00,55.0,53.6,30.00,SW,225,0.0,0.0,95,0.00,CLR,,0.00,WeatherDisplay:10.37,2013-04-02 10:48:00,
2013-04-02 06:53:00,55.0,53.6,30.01,SW,225,0.0,0.0,95,0.00,CLR,,0.00,WeatherDisplay:10.37,2013-04-02 10:53:00,
2013-04-02 06:58:00,54.7,53.3,30.01,SW,225,0.0,0.0,95,0.00,CLR,,0.00,WeatherDisplay:10.37,2013-04-02 10:58:00,
2013-04-02 07:03:00,54.7,53.3,30.01,SW,225,0.0,0.0,95,0.00,SCT,,0.00,WeatherDisplay:10.37,2013-04-02 11:03:00,
2013-04-02 07:08:00,54.7,53.3,30.01,SW,225,0.0,0.0,95,0.00,SCT,,0.00,WeatherDisplay:10.37,2013-04-02 11:08:00,
2013-04-02 07:13:00,54.7,53.3,30.02,SW,225,0.0,0.0,95,0.00,SCT,,0.00,WeatherDisplay:10.37,2013-04-02 11:13:00,
2013-04-02 07:18:00,54.7,53.3,30.02,SW,225,0.0,0.0,95,0.00,SCT,,0.00,WeatherDisplay:10.37,2013-04-02 11:18:00,
2013-04-02 07:23:00,54.5,53.1,30.02,SW,225,0.0,0.0,95,0.00,SCT,,0.00,WeatherDisplay:10.37,2013-04-02 11:23:00,
2013-04-02 07:28:00,54.5,53.4,30.02,SW,225,0.0,0.0,96,0.00,SCT,,0.00,WeatherDisplay:10.37,2013-04-02 11:28:00,
2013-04-02 07:33:00,54.3,52.9,30.03,SW,225,0.0,0.0,95,0.00,SCT,,0.00,WeatherDisplay:10.37,2013-04-02 11:33:00,
2013-04-02 07:38:00,54.5,53.4,30.03,SW,225,0.0,0.0,96,0.00,SCT,,0.00,WeatherDisplay:10.37,2013-04-02 11:38:00,
2013-04-02 07:43:00,54.3,52.9,30.03,SW,225,0.0,0.0,95,0.00,SCT,,0.00,WeatherDisplay:10.37,2013-04-02 11:43:00,
2013-04-02 07:48:00,54.5,53.4,30.03,SW,225,0.0,0.0,96,0.00,SCT,,0.00,WeatherDisplay:10.37,2013-04-02 11:48:00,
2013-04-02 07:53:00,54.5,53.4,30.04,SW,225,0.0,0.0,96,0.00,SCT,,0.00,WeatherDisplay:10.37,2013-04-02 11:53:00,
2013-04-02 07:58:00,54.5,53.4,30.04,SW,225,0.0,0.0,96,0.00,SCT,,0.00,WeatherDisplay:10.37,2013-04-02 11:58:00,
2013-04-02 08:03:00,54.7,53.6,30.04,SW,225,0.0,0.0,96,0.00,SCT,,0.00,WeatherDisplay:10.37,2013-04-02 12:03:00,
2013-04-02 08:08:00,55.0,53.9,30.04,SW,225,0.0,0.0,96,0.00,SCT,,0.00,WeatherDisplay:10.37,2013-04-02 12:08:00,
2013-04-02 08:13:00,55.6,54.5,30.04,SW,225,0.0,0.0,96,0.00,SCT,,0.00,WeatherDisplay:10.37,2013-04-02 12:13:00,
2013-04-02 08:18:00,56.1,54.7,30.04,SW,225,0.0,0.0,95,0.00,SCT,,0.00,WeatherDisplay:10.37,2013-04-02 12:18:00,
2013-04-02 08:23:00,56.3,54.9,30.04,SW,225,0.0,0.0,95,0.00,SCT,,0.00,WeatherDisplay:10.37,2013-04-02 12:23:00,
2013-04-02 08:28:00,56.8,55.7,30.05,SW,225,0.0,0.0,96,0.00,SCT,,0.00,WeatherDisplay:10.37,2013-04-02 12:28:00,
2013-04-02 08:33:00,57.4,56.2,30.05,NW,315,0.0,0.0,96,0.00,SCT,,0.00,WeatherDisplay:10.37,2013-04-02 12:33:00,
2013-04-02 08:38:00,57.9,56.5,30.05,NW,315,0.0,0.0,95,0.00,SCT,,0.00,WeatherDisplay:10.37,2013-04-02 12:38:00,
2013-04-02 08:43:00,58.5,57.0,30.06,NW,315,0.0,0.0,95,0.00,SCT,,0.00,WeatherDisplay:10.37,2013-04-02 12:43:00,
2013-04-02 08:48:00,59.2,57.7,30.06,East,90,0.0,2.3,95,0.00,SCT,,0.00,WeatherDisplay:10.37,2013-04-02 12:48:00,
2013-04-02 08:53:00,59.9,57.9,30.06,East,90,0.5,5.8,93,0.00,SCT,,0.00,WeatherDisplay:10.37,2013-04-02 12:53:00,
2013-04-02 08:58:00,62.1,55.8,30.06,North,0,1.4,6.9,80,0.00,SCT,,0.00,WeatherDisplay:10.37,2013-04-02 12:58:00,
2013-04-02 09:03:00,63.0,54.9,30.06,North,0,0.7,2.8,75,0.00,SCT,,0.00,WeatherDisplay:10.37,2013-04-02 13:03:00,
2013-04-02 09:08:00,64.0,55.2,30.06,NE,45,0.3,2.3,73,0.00,SCT,,0.00,WeatherDisplay:10.37,2013-04-02 13:08:00,
2013-04-02 09:13:00,64.8,53.1,30.07,NE,45,1.8,5.8,66,0.00,SCT,,0.00,WeatherDisplay:10.37,2013-04-02 13:13:00,
2013-04-02 09:18:00,65.3,53.6,30.07,SE,135,0.2,2.8,66,0.00,SCT,,0.00,WeatherDisplay:10.37,2013-04-02 13:18:00,
2013-04-02 09:23:00,65.8,53.7,30.07,NW,315,2.1,5.8,65,0.00,SCT,,0.00,WeatherDisplay:10.37,2013-04-02 13:23:00,
2013-04-02 09:28:00,66.0,52.6,30.07,NE,45,2.1,5.8,62,0.00,SCT,,0.00,WeatherDisplay:10.37,2013-04-02 13:28:00,
2013-04-02 09:33:00,66.6,53.6,30.07,NE,45,0.1,4.6,63,0.00,SCT,,0.00,WeatherDisplay:10.37,2013-04-02 13:33:00,
2013-04-02 09:38:00,66.9,53.5,30.07,NE,45,1.7,2.8,62,0.00,SCT,,0.00,WeatherDisplay:10.37,2013-04-02 13:38:00,
2013-04-02 09:43:00,67.3,53.8,30.07,NE,45,2.4,5.8,62,0.00,SCT,,0.00,WeatherDisplay:10.37,2013-04-02 13:43:00,
2013-04-02 09:48:00,67.6,53.7,30.07,NE,45,3.5,6.9,61,0.00,SCT,,0.00,WeatherDisplay:10.37,2013-04-02 13:48:00,
2013-04-02 09:53:00,67.6,52.8,30.07,NE,45,1.3,5.8,59,0.00,SCT,,0.00,WeatherDisplay:10.37,2013-04-02 13:53:00,
2013-04-02 09:58:00,68.0,53.6,30.08,NE,45,1.0,2.3,60,0.00,SCT,,0.00,WeatherDisplay:10.37,2013-04-02 13:58:00,
2013-04-02 10:03:00,68.5,52.7,30.08,North,0,0.8,2.8,57,0.00,FEW,,0.00,WeatherDisplay:10.37,2013-04-02 14:03:00,
2013-04-02 10:08:00,68.7,51.9,30.08,NE,45,1.2,6.9,55,0.00,FEW,,0.00,WeatherDisplay:10.37,2013-04-02 14:08:00,
2013-04-02 10:13:00,69.1,53.2,30.08,East,90,3.5,5.8,57,0.00,FEW,,0.00,WeatherDisplay:10.37,2013-04-02 14:13:00,
2013-04-02 10:18:00,69.6,52.7,30.08,NE,45,3.2,5.8,55,0.00,FEW,,0.00,WeatherDisplay:10.37,2013-04-02 14:18:00,
2013-04-02 10:23:00,70.3,52.4,30.08,NE,45,2.1,4.6,53,0.00,FEW,,0.00,WeatherDisplay:10.37,2013-04-02 14:23:00,
2013-04-02 10:28:00,70.3,52.4,30.08,NE,45,3.1,5.8,53,0.00,FEW,,0.00,WeatherDisplay:10.37,2013-04-02 14:28:00,
2013-04-02 10:33:00,71.2,52.2,30.07,NE,45,2.4,5.8,51,0.00,FEW,,0.00,WeatherDisplay:10.37,2013-04-02 14:33:00,
2013-04-02 10:38:00,72.3,52.6,30.07,NE,45,0.9,4.2,50,0.00,FEW,,0.00,WeatherDisplay:10.37,2013-04-02 14:38:00,
2013-04-02 10:43:00,73.2,53.5,30.08,East,90,5.0,8.1,50,0.00,FEW,,0.00,WeatherDisplay:10.37,2013-04-02 14:43:00,
2013-04-02 10:47:00,73.6,52.7,30.08,North,0,4.6,12.7,48,0.00,FEW,,0.00,WeatherDisplay:10.37,2013-04-02 14:47:00,
2013-04-02 10:48:00,73.6,52.7,30.08,North,0,4.6,12.7,48,0.00,FEW,,0.00,WeatherDisplay:10.37,2013-04-02 14:48:00,
2013-04-02 10:53:00,73.6,52.7,30.08,North,0,4.6,12.7,48,0.00,FEW,,0.00,WeatherDisplay:10.37,2013-04-02 14:53:00,
2013-04-02 11:00:00,74.1,52.0,30.08,NE,45,4.2,12.7,46,0.00,FEW,,0.00,WeatherDisplay:10.37,2013-04-02 15:00:00,
2013-04-02 11:05:00,74.1,52.0,30.08,NE,45,4.2,12.7,46,0.00,FEW,,0.00,WeatherDisplay:10.37,2013-04-02 15:05:00,
2013-04-02 11:10:00,74.5,52.9,30.08,North,0,5.9,12.7,47,0.00,FEW,,0.00,WeatherDisplay:10.37,2013-04-02 15:10:00,
2013-04-02 11:15:00,75.7,52.3,30.08,NE,45,1.3,8.1,44,0.00,FEW,,0.00,WeatherDisplay:10.37,2013-04-02 15:15:00,
2013-04-02 11:20:00,76.3,52.1,30.08,NE,45,2.2,8.1,43,0.00,FEW,,0.00,WeatherDisplay:10.37,2013-04-02 15:20:00,
2013-04-02 11:25:00,76.6,52.5,30.07,North,0,1.5,6.9,43,0.00,BKN,,0.00,WeatherDisplay:10.37,2013-04-02 15:25:00,
2013-04-02 11:30:00,75.7,52.9,30.07,NE,45,0.7,4.6,45,0.00,BKN,,0.00,WeatherDisplay:10.37,2013-04-02 15:30:00,
2013-04-02 11:35:00,75.7,52.3,30.07,East,90,0.9,4.6,44,0.00,BKN,,0.00,WeatherDisplay:10.37,2013-04-02 15:35:00,
2013-04-02 11:40:00,76.6,51.8,30.07,North,0,2.7,8.1,42,0.00,BKN,,0.00,WeatherDisplay:10.37,2013-04-02 15:40:00,
2013-04-02 11:45:00,77.2,52.3,30.07,North,0,0.4,4.6,42,0.00,BKN,,0.00,WeatherDisplay:10.37,2013-04-02 15:45:00,
2013-04-02 11:50:00,76.8,52.6,30.07,NE,45,1.7,2.8,43,0.00,BKN,,0.00,WeatherDisplay:10.37,2013-04-02 15:50:00,
2013-04-02 11:55:00,77.7,50.8,30.08,NE,45,1.9,5.8,39,0.00,BKN,,0.00,WeatherDisplay:10.37,2013-04-02 15:55:00,
2013-04-02 12:01:00,77.7,52.1,30.07,North,0,1.4,4.6,41,0.00,BKN,,0.00,WeatherDisplay:10.37,2013-04-02 16:01:00,
2013-04-02 12:06:00,79.5,52.4,30.08,East,90,2.7,6.9,39,0.00,BKN,,0.00,WeatherDisplay:10.37,2013-04-02 16:06:00,
2013-04-02 12:11:00,79.3,50.8,30.08,North,0,2.0,2.8,37,0.00,BKN,,0.00,WeatherDisplay:10.37,2013-04-02 16:11:00,
2013-04-02 12:15:00,77.9,50.2,30.08,NW,315,2.1,5.8,38,0.00,BKN,,0.00,WeatherDisplay:10.37,2013-04-02 16:15:00,
2013-04-02 12:20:00,79.3,50.8,30.08,SE,135,0.5,4.6,37,0.00,BKN,,0.00,WeatherDisplay:10.37,2013-04-02 16:20:00,
2013-04-02 12:25:00,80.8,52.1,30.07,NE,45,3.3,8.1,37,0.00,BKN,,0.00,WeatherDisplay:10.37,2013-04-02 16:25:00,
2013-04-02 12:30:00,79.0,51.2,30.07,NE,45,0.2,2.8,38,0.00,BKN,,0.00,WeatherDisplay:10.37,2013-04-02 16:30:00,
2013-04-02 12:35:00,80.2,50.9,30.07,East,90,1.3,10.4,36,0.00,BKN,,0.00,WeatherDisplay:10.37,2013-04-02 16:35:00,
2013-04-02 12:41:00,80.8,51.3,30.07,NE,45,2.2,5.8,36,0.00,BKN,,0.00,WeatherDisplay:10.37,2013-04-02 16:41:00,
2013-04-02 12:46:00,81.7,51.4,30.07,East,90,0.0,1.1,35,0.00,BKN,,0.00,WeatherDisplay:10.37,2013-04-02 16:46:00,
2013-04-02 12:51:00,80.2,50.1,30.07,North,0,0.5,4.6,35,0.00,BKN,,0.00,WeatherDisplay:10.37,2013-04-02 16:51:00,
2013-04-02 12:55:00,80.8,50.6,30.07,NE,45,2.4,5.8,35,0.00,BKN,,0.00,WeatherDisplay:10.37,2013-04-02 16:55:00,
2013-04-02 13:00:00,80.4,50.3,30.07,North,0,1.8,6.9,35,0.00,BKN,,0.00,WeatherDisplay:10.37,2013-04-02 17:00:00,
2013-04-02 13:05:00,81.3,51.0,30.08,North,0,0.4,4.6,35,0.00,BKN,,0.00,WeatherDisplay:10.37,2013-04-02 17:05:00,
2013-04-02 13:10:00,81.0,50.7,30.07,NE,45,1.2,5.8,35,0.00,BKN,,0.00,WeatherDisplay:10.37,2013-04-02 17:10:00,
2013-04-02 13:15:00,81.5,51.2,30.08,East,90,0.4,2.3,35,0.00,BKN,,0.00,WeatherDisplay:10.37,2013-04-02 17:15:00,
2013-04-02 13:20:00,80.4,51.0,30.08,NW,315,1.8,5.8,36,0.00,BKN,,0.00,WeatherDisplay:10.37,2013-04-02 17:20:00,
2013-04-02 13:25:00,81.0,50.7,30.08,East,90,0.1,4.6,35,0.00,BKN,,0.00,WeatherDisplay:10.37,2013-04-02 17:25:00,
2013-04-02 13:30:00,81.5,50.4,30.07,NE,45,2.7,6.9,34,0.00,BKN,,0.00,WeatherDisplay:10.37,2013-04-02 17:30:00,
2013-04-02 13:35:00,80.8,50.6,30.07,North,0,0.3,2.8,35,0.00,BKN,,0.00,WeatherDisplay:10.37,2013-04-02 17:35:00,
2013-04-02 13:40:00,80.4,50.3,30.07,NE,45,0.7,4.6,35,0.00,BKN,,0.00,WeatherDisplay:10.37,2013-04-02 17:40:00,
2013-04-02 13:46:00,81.5,50.4,30.07,North,0,1.2,4.6,34,0.00,BKN,,0.00,WeatherDisplay:10.37,2013-04-02 17:46:00,
2013-04-02 13:51:00,81.3,48.6,30.07,NE,45,1.5,5.8,32,0.00,BKN,,0.00,WeatherDisplay:10.37,2013-04-02 17:51:00,
2013-04-02 13:56:00,81.1,50.1,30.06,SE,135,1.7,4.6,34,0.00,BKN,,0.00,WeatherDisplay:10.37,2013-04-02 17:56:00,
2013-04-02 14:01:00,81.0,49.9,30.06,NE,45,0.0,0.0,34,0.00,BKN,,0.00,WeatherDisplay:10.37,2013-04-02 18:01:00,
2013-04-02 14:06:00,80.2,49.3,30.06,North,0,0.4,5.8,34,0.00,BKN,,0.00,WeatherDisplay:10.37,2013-04-02 18:06:00,
2013-04-02 14:11:00,80.4,49.5,30.05,NE,45,0.8,4.6,34,0.00,BKN,,0.00,WeatherDisplay:10.37,2013-04-02 18:11:00,
2013-04-02 14:16:00,79.0,48.2,30.05,NE,45,2.6,8.1,34,0.00,BKN,,0.00,WeatherDisplay:10.37,2013-04-02 18:16:00,
2013-04-02 14:22:00,79.3,48.5,30.05,North,0,0.2,4.6,34,0.00,BKN,,0.00,WeatherDisplay:10.37,2013-04-02 18:22:00,
2013-04-02 14:27:00,79.0,49.0,30.05,NE,45,2.6,5.8,35,0.00,BKN,,0.00,WeatherDisplay:10.37,2013-04-02 18:27:00,
2013-04-02 14:32:00,79.3,49.3,30.04,NE,45,2.8,5.8,35,0.00,BKN,,0.00,WeatherDisplay:10.37,2013-04-02 18:32:00,
2013-04-02 14:37:00,79.5,49.5,30.04,NE,45,0.2,2.3,35,0.00,BKN,,0.00,WeatherDisplay:10.37,2013-04-02 18:37:00,
2013-04-02 14:42:00,80.2,49.3,30.04,NE,45,1.3,4.6,34,0.00,BKN,,0.00,WeatherDisplay:10.37,2013-04-02 18:42:00,
2013-04-02 14:48:00,79.2,49.1,30.03,NE,45,1.0,2.3,35,0.00,BKN,,0.00,WeatherDisplay:10.37,2013-04-02 18:48:00,
2013-04-02 14:53:00,78.6,50.2,30.03,NE,45,1.0,2.8,37,0.00,BKN,,0.00,WeatherDisplay:10.37,2013-04-02 18:53:00,
2013-04-02 14:58:00,79.7,49.6,30.03,East,90,1.8,4.6,35,0.00,BKN,,0.00,WeatherDisplay:10.37,2013-04-02 18:58:00,
2013-04-02 15:03:00,79.7,48.8,30.03,NE,45,1.0,5.8,34,0.00,BKN,,0.00,WeatherDisplay:10.37,2013-04-02 19:03:00,
2013-04-02 15:08:00,79.5,48.7,30.03,North,0,0.7,4.6,34,0.00,BKN,,0.00,WeatherDisplay:10.37,2013-04-02 19:08:00,
2013-04-02 15:13:00,78.4,48.5,30.02,NE,45,2.2,4.6,35,0.00,BKN,,0.00,WeatherDisplay:10.37,2013-04-02 19:13:00,
2013-04-02 15:18:00,78.6,48.7,30.02,NE,45,1.6,2.8,35,0.00,BKN,,0.00,WeatherDisplay:10.37,2013-04-02 19:18:00,
2013-04-02 15:24:00,78.4,48.5,30.03,North,0,1.1,2.3,35,0.00,BKN,,0.00,WeatherDisplay:10.37,2013-04-02 19:24:00,
2013-04-02 15:29:00,78.4,46.9,30.02,North,0,0.7,4.6,33,0.00,BKN,,0.00,WeatherDisplay:10.37,2013-04-02 19:29:00,
2013-04-02 15:34:00,78.3,48.4,30.02,East,90,1.6,2.3,35,0.00,BKN,,0.00,WeatherDisplay:10.37,2013-04-02 19:34:00,
2013-04-02 15:39:00,78.4,48.5,30.02,NE,45,0.4,2.8,35,0.00,BKN,,0.00,WeatherDisplay:10.37,2013-04-02 19:39:00,
2013-04-02 15:44:00,78.4,48.5,30.02,NE,45,2.1,5.8,35,0.00,BKN,,0.00,WeatherDisplay:10.37,2013-04-02 19:44:00,
2013-04-02 15:49:00,78.3,49.1,30.02,SE,135,1.0,2.8,36,0.00,BKN,,0.00,WeatherDisplay:10.37,2013-04-02 19:49:00,
2013-04-02 15:55:00,78.6,49.4,30.02,East,90,1.1,5.8,36,0.00,BKN,,0.00,WeatherDisplay:10.37,2013-04-02 19:55:00,
2013-04-02 16:00:00,78.6,50.2,30.02,NE,45,0.9,2.8,37,0.00,BKN,,0.00,WeatherDisplay:10.37,2013-04-02 20:00:00,
2013-04-02 16:05:00,78.6,50.2,30.02,East,90,0.6,2.8,37,0.00,FEW,,0.00,WeatherDisplay:10.37,2013-04-02 20:05:00,
2013-04-02 16:10:00,78.4,49.3,30.02,South,180,1.7,4.6,36,0.00,FEW,,0.00,WeatherDisplay:10.37,2013-04-02 20:10:00,
2013-04-02 16:15:00,77.5,49.2,30.02,North,0,1.8,4.6,37,0.00,FEW,,0.00,WeatherDisplay:10.37,2013-04-02 20:15:00,
2013-04-02 16:20:00,77.5,49.2,30.02,North,0,1.8,4.6,37,0.00,FEW,,0.00,WeatherDisplay:10.37,2013-04-02 20:20:00,
2013-04-02 16:25:00,77.5,49.9,30.02,East,90,2.5,4.6,38,0.00,FEW,,0.00,WeatherDisplay:10.37,2013-04-02 20:25:00,
2013-04-02 16:30:00,77.2,50.3,30.02,NE,45,1.6,4.6,39,0.00,FEW,,0.00,WeatherDisplay:10.37,2013-04-02 20:30:00,
2013-04-02 16:35:00,77.2,50.3,30.02,NE,45,1.6,4.6,39,0.00,FEW,,0.00,WeatherDisplay:10.37,2013-04-02 20:35:00,
2013-04-02 16:40:00,76.8,49.3,30.02,South,180,1.6,4.6,38,0.00,FEW,,0.00,WeatherDisplay:10.37,2013-04-02 20:40:00,
2013-04-02 16:45:00,76.3,48.8,30.02,South,180,0.7,2.3,38,0.00,FEW,,0.00,WeatherDisplay:10.37,2013-04-02 20:45:00,
2013-04-02 16:50:00,76.3,49.5,30.02,East,90,2.3,8.1,39,0.00,FEW,,0.00,WeatherDisplay:10.37,2013-04-02 20:50:00,
2013-04-02 16:55:00,75.9,48.5,30.02,SE,135,2.8,5.8,38,0.00,FEW,,0.00,WeatherDisplay:10.37,2013-04-02 20:55:00,
2013-04-02 17:00:00,75.6,48.9,30.02,SE,135,1.4,4.6,39,0.00,FEW,,0.00,WeatherDisplay:10.37,2013-04-02 21:00:00,
2013-04-02 17:05:00,75.6,48.9,30.01,SW,225,1.5,5.8,39,0.00,FEW,,0.00,WeatherDisplay:10.37,2013-04-02 21:05:00,
2013-04-02 17:10:00,75.6,48.9,30.01,NE,45,2.2,5.8,39,0.00,FEW,,0.00,WeatherDisplay:10.37,2013-04-02 21:10:00,
2013-04-02 17:15:00,75.4,48.0,30.02,East,90,4.5,6.9,38,0.00,FEW,,0.00,WeatherDisplay:10.37,2013-04-02 21:15:00,
2013-04-02 17:20:00,75.0,48.4,30.02,NE,45,2.1,5.8,39,0.00,FEW,,0.00,WeatherDisplay:10.37,2013-04-02 21:20:00,
2013-04-02 17:25:00,75.0,48.4,30.02,NE,45,2.7,8.1,39,0.00,FEW,,0.00,WeatherDisplay:10.37,2013-04-02 21:25:00,
2013-04-02 17:31:00,74.8,48.2,30.02,South,180,1.0,5.8,39,0.00,FEW,,0.00,WeatherDisplay:10.37,2013-04-02 21:31:00,
2013-04-02 17:36:00,74.5,48.6,30.02,NE,45,3.0,5.6,40,0.00,FEW,,0.00,WeatherDisplay:10.37,2013-04-02 21:36:00,
2013-04-02 17:41:00,74.5,48.6,30.02,NE,45,0.6,2.3,40,0.00,FEW,,0.00,WeatherDisplay:10.37,2013-04-02 21:41:00,
2013-04-02 17:46:00,74.5,49.2,30.02,NE,45,2.4,5.8,41,0.00,FEW,,0.00,WeatherDisplay:10.37,2013-04-02 21:46:00,
2013-04-02 17:52:00,74.3,49.7,30.02,NE,45,1.7,5.6,42,0.00,FEW,,0.00,WeatherDisplay:10.37,2013-04-02 21:52:00,
2013-04-02 17:57:00,74.1,48.9,30.02,NE,45,1.5,4.6,41,0.00,FEW,,0.00,WeatherDisplay:10.37,2013-04-02 21:57:00,
2013-04-02 18:02:00,74.1,48.9,30.02,NE,45,3.5,8.1,41,0.00,FEW,,0.00,WeatherDisplay:10.37,2013-04-02 22:02:00,
2013-04-02 18:07:00,73.9,48.7,30.03,SE,135,1.0,4.6,41,0.00,FEW,,0.00,WeatherDisplay:10.37,2013-04-02 22:07:00,
2013-04-02 18:12:00,73.8,48.6,30.02,East,90,1.4,4.6,41,0.00,FEW,,0.00,WeatherDisplay:10.37,2013-04-02 22:12:00,
2013-04-02 18:17:00,73.6,48.4,30.02,East,90,2.5,4.6,41,0.00,FEW,,0.00,WeatherDisplay:10.37,2013-04-02 22:17:00,
2013-04-02 18:23:00,73.6,49.1,30.03,NE,45,1.0,4.6,42,0.00,FEW,,0.00,WeatherDisplay:10.37,2013-04-02 22:23:00,
2013-04-02 18:28:00,73.0,48.6,30.02,East,90,0.7,4.6,42,0.00,FEW,,0.00,WeatherDisplay:10.37,2013-04-02 22:28:00,
2013-04-02 18:33:00,72.7,48.9,30.03,East,90,1.5,4.6,43,0.00,FEW,,0.00,WeatherDisplay:10.37,2013-04-02 22:33:00,
2013-04-02 18:38:00,72.5,48.7,30.03,NE,45,0.2,2.3,43,0.00,FEW,,0.00,WeatherDisplay:10.37,2013-04-02 22:38:00,
2013-04-02 18:43:00,72.0,48.9,30.02,East,90,3.4,8.1,44,0.00,FEW,,0.00,WeatherDisplay:10.37,2013-04-02 22:43:00,
2013-04-02 18:48:00,72.0,49.5,30.02,NE,45,0.6,4.6,45,0.00,FEW,,0.00,WeatherDisplay:10.37,2013-04-02 22:48:00,
2013-04-02 18:53:00,71.8,49.3,30.03,NE,45,0.6,4.6,45,0.00,FEW,,0.00,WeatherDisplay:10.37,2013-04-02 22:53:00,
2013-04-02 18:58:00,71.4,49.6,30.03,NE,45,0.3,2.3,46,0.00,FEW,,0.00,WeatherDisplay:10.37,2013-04-02 22:58:00,
2013-04-02 19:03:00,71.2,50.0,30.03,East,90,1.8,4.6,47,0.00,FEW,,0.00,WeatherDisplay:10.37,2013-04-02 23:03:00,
2013-04-02 19:09:00,70.9,49.6,30.02,NE,45,0.5,2.8,47,0.00,FEW,,0.00,WeatherDisplay:10.37,2013-04-02 23:09:00,
2013-04-02 19:14:00,70.7,50.0,30.03,SE,135,1.6,5.8,48,0.00,FEW,,0.00,WeatherDisplay:10.37,2013-04-02 23:14:00,
2013-04-02 19:19:00,70.3,49.7,30.03,NE,45,0.2,4.6,48,0.00,FEW,,0.00,WeatherDisplay:10.37,2013-04-02 23:19:00,
2013-04-02 19:24:00,70.0,50.5,30.03,East,90,2.1,5.8,50,0.00,FEW,,0.00,WeatherDisplay:10.37,2013-04-02 23:24:00,
2013-04-02 19:29:00,69.6,50.7,30.03,East,90,1.5,4.2,51,0.00,FEW,,0.00,WeatherDisplay:10.37,2013-04-02 23:29:00,
2013-04-02 19:34:00,69.4,51.0,30.03,East,90,2.4,4.6,52,0.00,FEW,,0.00,WeatherDisplay:10.37,2013-04-02 23:34:00,
2013-04-02 19:39:00,69.1,50.7,30.03,East,90,0.4,2.3,52,0.00,FEW,,0.00,WeatherDisplay:10.37,2013-04-02 23:39:00,
2013-04-02 19:44:00,68.7,50.9,30.03,NE,45,1.6,5.8,53,0.00,FEW,,0.00,WeatherDisplay:10.37,2013-04-02 23:44:00,
2013-04-02 19:49:00,68.5,51.2,30.02,NE,45,0.6,4.6,54,0.00,FEW,,0.00,WeatherDisplay:10.37,2013-04-02 23:49:00,
2013-04-02 19:54:00,68.2,50.9,30.02,NE,45,0.8,4.6,54,0.00,FEW,,0.00,WeatherDisplay:10.37,2013-04-02 23:54:00,
2013-04-02 19:59:00,67.6,50.4,30.02,East,90,2.1,5.8,54,0.00,FEW,,0.00,WeatherDisplay:10.37,2013-04-02 23:59:00,
2013-04-02 20:04:00,67.5,50.7,30.02,East,90,0.9,5.8,55,0.00,FEW,,0.00,WeatherDisplay:10.37,2013-04-03 00:04:00,
2013-04-02 20:09:00,67.1,50.4,30.03,East,90,0.1,4.6,55,0.00,FEW,,0.00,WeatherDisplay:10.37,2013-04-03 00:09:00,
2013-04-02 20:14:00,66.9,50.7,30.03,East,90,0.4,2.3,56,0.00,FEW,,0.00,WeatherDisplay:10.37,2013-04-03 00:14:00,
2013-04-02 20:19:00,66.4,50.7,30.03,East,90,0.6,4.2,57,0.00,FEW,,0.00,WeatherDisplay:10.37,2013-04-03 00:19:00,
2013-04-02 20:24:00,66.0,50.8,30.03,NE,45,0.1,2.3,58,0.00,FEW,,0.00,WeatherDisplay:10.37,2013-04-03 00:24:00,
2013-04-02 20:29:00,65.8,51.1,30.02,NE,45,0.3,1.4,59,0.00,FEW,,0.00,WeatherDisplay:10.37,2013-04-03 00:29:00,
2013-04-02 20:34:00,65.7,50.9,30.02,NE,45,0.0,1.1,59,0.00,FEW,,0.00,WeatherDisplay:10.37,2013-04-03 00:34:00,
2013-04-02 20:39:00,65.1,50.9,30.03,NE,45,0.2,2.8,60,0.00,FEW,,0.00,WeatherDisplay:10.37,2013-04-03 00:39:00,
2013-04-02 20:44:00,64.9,50.7,30.02,NE,45,0.0,0.0,60,0.00,FEW,,0.00,WeatherDisplay:10.37,2013-04-03 00:44:00,
2013-04-02 20:49:00,64.6,51.3,30.03,NE,45,0.1,2.3,62,0.00,FEW,,0.00,WeatherDisplay:10.37,2013-04-03 00:49:00,
2013-04-02 20:55:00,64.2,51.4,30.03,NE,45,0.0,0.0,63,0.00,FEW,,0.00,WeatherDisplay:10.37,2013-04-03 00:55:00,
2013-04-02 21:00:00,63.7,51.7,30.03,NE,45,0.0,0.0,65,0.00,FEW,,0.00,WeatherDisplay:10.37,2013-04-03 01:00:00,
2013-04-02 21:05:00,63.3,51.3,30.03,NE,45,0.0,0.0,65,0.00,FEW,,0.00,WeatherDisplay:10.37,2013-04-03 01:05:00,
2013-04-02 21:10:00,63.1,51.2,30.04,NE,45,0.0,0.0,65,0.00,FEW,,0.00,WeatherDisplay:10.37,2013-04-03 01:10:00,
2013-04-02 21:15:00,62.8,51.2,30.04,NE,45,0.0,0.0,66,0.00,FEW,,0.00,WeatherDisplay:10.37,2013-04-03 01:15:00,
2013-04-02 21:20:00,62.4,51.7,30.04,NE,45,0.0,0.0,68,0.00,FEW,,0.00,WeatherDisplay:10.37,2013-04-03 01:20:00,
2013-04-02 21:25:00,62.2,51.5,30.04,NE,45,0.0,0.0,68,0.00,FEW,,0.00,WeatherDisplay:10.37,2013-04-03 01:25:00,
2013-04-02 21:30:00,61.9,50.8,30.05,NE,45,0.0,0.0,67,0.00,FEW,,0.00,WeatherDisplay:10.37,2013-04-03 01:30:00,
2013-04-02 21:35:00,61.5,50.9,30.04,NE,45,0.0,0.0,68,0.00,FEW,,0.00,WeatherDisplay:10.37,2013-04-03 01:35:00,
2013-04-02 21:40:00,61.5,51.3,30.04,NE,45,0.0,0.0,69,0.00,FEW,,0.00,WeatherDisplay:10.37,2013-04-03 01:40:00,
2013-04-02 21:45:00,61.3,51.5,30.05,NE,45,0.0,0.0,70,0.00,FEW,,0.00,WeatherDisplay:10.37,2013-04-03 01:45:00,
2013-04-02 21:50:00,61.0,51.1,30.05,NE,45,0.0,0.0,70,0.00,FEW,,0.00,WeatherDisplay:10.37,2013-04-03 01:50:00,
2013-04-02 21:55:00,60.6,51.2,30.05,NE,45,0.0,0.0,71,0.00,FEW,,0.00,WeatherDisplay:10.37,2013-04-03 01:55:00,
2013-04-02 22:00:00,60.4,51.4,30.05,NE,45,0.0,0.0,72,0.00,FEW,,0.00,WeatherDisplay:10.37,2013-04-03 02:00:00,
2013-04-02 22:05:00,60.3,51.2,30.05,NE,45,0.0,0.0,72,0.00,FEW,,0.00,WeatherDisplay:10.37,2013-04-03 02:05:00,
2013-04-02 22:10:00,60.1,51.4,30.05,NE,45,0.0,0.0,73,0.00,FEW,,0.00,WeatherDisplay:10.37,2013-04-03 02:10:00,
2013-04-02 22:15:00,59.7,51.4,30.05,NE,45,0.0,0.0,74,0.00,FEW,,0.00,WeatherDisplay:10.37,2013-04-03 02:15:00,
2013-04-02 22:20:00,59.7,51.8,30.05,NE,45,0.0,0.0,75,0.00,FEW,,0.00,WeatherDisplay:10.37,2013-04-03 02:20:00,
2013-04-02 22:25:00,59.5,52.0,30.05,NE,45,0.0,0.0,76,0.00,FEW,,0.00,WeatherDisplay:10.37,2013-04-03 02:25:00,
2013-04-02 22:30:00,59.4,51.8,30.05,NE,45,0.0,0.0,76,0.00,FEW,,0.00,WeatherDisplay:10.37,2013-04-03 02:30:00,
2013-04-02 22:35:00,59.2,52.0,30.05,NE,45,0.0,0.0,77,0.00,FEW,,0.00,WeatherDisplay:10.37,2013-04-03 02:35:00,
2013-04-02 22:40:00,59.0,51.8,30.05,NE,45,0.0,0.0,77,0.00,FEW,,0.00,WeatherDisplay:10.37,2013-04-03 02:40:00,
2013-04-02 22:45:00,58.8,51.6,30.05,NE,45,0.0,0.0,77,0.00,FEW,,0.00,WeatherDisplay:10.37,2013-04-03 02:45:00,
2013-04-02 22:50:00,58.8,52.0,30.05,NE,45,0.0,0.0,78,0.00,FEW,,0.00,WeatherDisplay:10.37,2013-04-03 02:50:00,
2013-04-02 22:56:00,58.8,52.3,30.05,NE,45,0.0,0.0,79,0.00,FEW,,0.00,WeatherDisplay:10.37,2013-04-03 02:56:00,
2013-04-02 23:01:00,59.0,52.8,30.05,NE,45,0.0,0.0,80,0.00,SCT,,0.00,WeatherDisplay:10.37,2013-04-03 03:01:00,
2013-04-02 23:06:00,58.8,52.3,30.05,NE,45,0.0,0.0,79,0.00,SCT,,0.00,WeatherDisplay:10.37,2013-04-03 03:06:00,
2013-04-02 23:11:00,58.6,52.8,30.05,NE,45,0.0,0.0,81,0.00,SCT,,0.00,WeatherDisplay:10.37,2013-04-03 03:11:00,
2013-04-02 23:16:00,58.6,52.8,30.05,NE,45,0.0,0.0,81,0.00,SCT,,0.00,WeatherDisplay:10.37,2013-04-03 03:16:00,
2013-04-02 23:21:00,58.6,53.2,30.06,NE,45,0.0,0.0,82,0.00,SCT,,0.00,WeatherDisplay:10.37,2013-04-03 03:21:00,
2013-04-02 23:26:00,58.3,52.8,30.06,NE,45,0.0,0.0,82,0.00,SCT,,0.00,WeatherDisplay:10.37,2013-04-03 03:26:00,
2013-04-02 23:32:00,58.3,52.8,30.06,NE,45,0.0,0.0,82,0.00,SCT,,0.00,WeatherDisplay:10.37,2013-04-03 03:32:00,
2013-04-02 23:37:00,58.6,53.5,30.06,NE,45,0.0,0.0,83,0.00,SCT,,0.00,WeatherDisplay:10.37,2013-04-03 03:37:00,
2013-04-02 23:42:00,58.6,53.5,30.06,NE,45,0.0,0.0,83,0.00,SCT,,0.00,WeatherDisplay:10.37,2013-04-03 03:42:00,
2013-04-02 23:47:00,58.5,53.3,30.06,NE,45,0.0,0.0,83,0.00,SCT,,0.00,WeatherDisplay:10.37,2013-04-03 03:47:00,
2013-04-02 23:52:00,58.3,53.1,30.06,NE,45,0.0,0.0,83,0.00,SCT,,0.00,WeatherDisplay:10.37,2013-04-03 03:52:00,
2013-04-02 23:57:00,58.3,53.5,30.06,NE,45,0.0,0.0,84,0.00,SCT,,0.00,WeatherDisplay:10.37,2013-04-03 03:57:00,